Dunaujvaros, Hungary
Current Conditions -  °F | °C
As of 10:30 AM on Friday 28 Nov 2014 (Local Time) from LHBP Reporting Station
Freezing Drizzle Freezing Drizzle  
Wind Chill: 24°   Ceiling: 300
Heat Index: 32°   Visibility: 1.8mi
Dew Point: 32°   Wind: 9mph
Humidity: 100%   Direction: 80°E
Pressure: 30.12"   Gusts: NA
Location:  46.98°N, 18.93°E
Report Text: LHBP 280830Z 08008KT 3000 -FZDZ BR SCT002 OVC003 M00/M00 Q1020 NOSIG
Loading
Personal Weather Stations






























Interactive Weather Map New forecast layout! Learn more

10-Day Weather Forecast

Advertisements
Track Severe Weather on mobile